Worthington, Ohio
Current Conditions -  °F | °C
As of 7:23 PM on Thursday 27 Nov 2014 (Local Time) from KOSU Reporting Station
Overcast Overcast  
Wind Chill: 18°   Ceiling: 2300
Heat Index: 31°   Visibility: 10mi
Dew Point: 23°   Wind: 21mph
Humidity: 72%   Direction: 280°W
Pressure: 30.28"   Gusts: 25mph
Location:  40.1°N, 83.02°W
Report Text: KOSU 280023Z 28018G22KT 10SM BKN023 OVC029 M01/M05 A3028 RMK AO2 T10061050
Loading
Personal Weather Stations






























Interactive Weather Map New forecast layout! Learn more

10-Day Weather Forecast

Advertisements
Track Severe Weather on mobile